createdAt,value
2022-10-04T00:00:50.701Z,6.2
2022-10-04T00:02:50.920Z,6.1
2022-10-04T00:04:50.334Z,6.1
2022-10-04T00:06:50.533Z,6.1
2022-10-04T00:08:50.442Z,6.1
2022-10-04T00:10:50.296Z,6.1
2022-10-04T00:12:50.386Z,6.1
2022-10-04T00:14:50.192Z,6.0
2022-10-04T00:16:50.569Z,6.0
2022-10-04T00:18:50.461Z,6.0
2022-10-04T00:20:50.675Z,5.9
2022-10-04T00:22:50.869Z,5.9
2022-10-04T00:24:50.926Z,5.9
2022-10-04T00:26:50.276Z,5.9
2022-10-04T00:28:50.262Z,5.8
2022-10-04T00:30:50.245Z,5.8
2022-10-04T00:32:50.469Z,5.8
2022-10-04T00:34:49.968Z,5.8
2022-10-04T00:36:50.536Z,5.7
2022-10-04T00:38:50.606Z,5.7
2022-10-04T00:40:50.580Z,5.6
2022-10-04T00:42:50.750Z,5.6
2022-10-04T00:44:50.645Z,5.6
2022-10-04T00:46:50.056Z,5.6
2022-10-04T00:48:50.001Z,5.6
2022-10-04T00:50:50.899Z,5.5
2022-10-04T00:52:49.949Z,5.5
2022-10-04T00:54:50.851Z,5.5
2022-10-04T00:56:50.067Z,5.5
2022-10-04T00:58:49.977Z,5.5
2022-10-04T01:00:50.403Z,5.5
2022-10-04T01:02:50.811Z,5.5
2022-10-04T01:04:50.543Z,5.4
2022-10-04T01:06:50.857Z,5.4
2022-10-04T01:08:50.655Z,5.4
2022-10-04T01:10:50.749Z,5.4
2022-10-04T01:12:50.758Z,5.3
2022-10-04T01:14:50.699Z,5.3
2022-10-04T01:16:50.230Z,5.3
2022-10-04T01:18:50.228Z,5.3
2022-10-04T01:20:50.231Z,5.3
2022-10-04T01:22:50.230Z,5.3
2022-10-04T01:24:50.399Z,5.3
2022-10-04T01:26:50.795Z,5.3
2022-10-04T01:28:49.915Z,5.3
2022-10-04T01:30:50.828Z,5.3
2022-10-04T01:32:50.877Z,5.3
2022-10-04T01:34:50.369Z,5.2
2022-10-04T01:36:50.540Z,5.2
2022-10-04T01:38:50.675Z,5.2
2022-10-04T01:40:50.416Z,5.2
2022-10-04T01:42:50.508Z,5.2
2022-10-04T01:44:50.340Z,5.2
2022-10-04T01:46:51.157Z,5.2
2022-10-04T01:48:50.183Z,5.2
2022-10-04T01:50:50.062Z,5.1
2022-10-04T01:52:49.969Z,5.1
2022-10-04T01:54:49.955Z,5.1
2022-10-04T01:56:50.277Z,5.0
2022-10-04T01:58:50.056Z,4.9
2022-10-04T02:00:50.211Z,4.9
2022-10-04T02:02:50.195Z,4.9
2022-10-04T02:04:50.688Z,4.9
2022-10-04T02:06:50.180Z,4.9
2022-10-04T02:08:50.218Z,4.9
2022-10-04T02:10:50.267Z,4.8
2022-10-04T02:12:50.160Z,4.8
2022-10-04T02:14:50.048Z,4.8
2022-10-04T02:16:50.131Z,4.8
2022-10-04T02:18:50.122Z,4.8
2022-10-04T02:20:50.079Z,4.8
2022-10-04T02:22:50.078Z,4.8
2022-10-04T02:24:50.029Z,4.8
2022-10-04T02:26:50.167Z,4.7
2022-10-04T02:28:50.286Z,4.7
2022-10-04T02:30:50.401Z,4.7
2022-10-04T02:32:50.560Z,4.7
2022-10-04T02:34:50.007Z,4.7
2022-10-04T02:36:50.329Z,4.7
2022-10-04T02:38:50.344Z,4.7
2022-10-04T02:40:50.085Z,4.7
2022-10-04T02:42:50.989Z,4.7
2022-10-04T02:44:50.781Z,4.7
2022-10-04T02:46:50.304Z,4.7
2022-10-04T02:48:50.350Z,4.7
2022-10-04T02:50:50.341Z,4.6
2022-10-04T02:52:50.237Z,4.6
2022-10-04T02:54:50.371Z,4.6
2022-10-04T02:56:50.468Z,4.6
2022-10-04T02:58:50.331Z,4.6
2022-10-04T03:00:50.672Z,4.6
2022-10-04T03:02:50.897Z,4.6
2022-10-04T03:04:50.419Z,4.6
2022-10-04T03:06:50.525Z,4.7
2022-10-04T03:08:50.616Z,4.7
2022-10-04T03:10:50.512Z,4.7
2022-10-04T03:12:50.333Z,4.7
2022-10-04T03:14:50.153Z,4.7
2022-10-04T03:16:50.238Z,4.7
2022-10-04T03:18:50.160Z,4.7
2022-10-04T03:20:49.997Z,4.8
2022-10-04T03:22:49.975Z,4.9
2022-10-04T03:24:49.948Z,4.9
2022-10-04T03:26:49.989Z,4.9
2022-10-04T03:28:49.966Z,4.9
2022-10-04T03:30:50.779Z,4.9
2022-10-04T03:32:49.980Z,4.9
2022-10-04T03:34:50.501Z,4.9
2022-10-04T03:36:50.771Z,4.9
2022-10-04T03:38:50.701Z,4.9
2022-10-04T03:40:50.536Z,4.8
2022-10-04T03:42:50.621Z,4.9
2022-10-04T03:44:50.392Z,4.9
2022-10-04T03:46:50.526Z,4.9
2022-10-04T03:48:50.469Z,4.9
2022-10-04T03:50:50.627Z,4.9
2022-10-04T03:52:50.445Z,4.9
2022-10-04T03:54:50.451Z,4.9
2022-10-04T03:56:50.871Z,4.9
2022-10-04T03:58:50.576Z,4.9
2022-10-04T04:00:50.975Z,4.9
2022-10-04T04:02:50.905Z,5.0
2022-10-04T04:04:50.322Z,5.0
2022-10-04T04:06:50.536Z,5.0
2022-10-04T04:08:50.552Z,5.0
2022-10-04T04:10:50.414Z,5.0
2022-10-04T04:12:50.442Z,5.0
2022-10-04T04:14:50.305Z,5.0
2022-10-04T04:16:50.480Z,5.1
2022-10-04T04:18:50.405Z,5.1
2022-10-04T04:20:50.267Z,5.2
2022-10-04T04:22:50.239Z,5.2
2022-10-04T04:24:50.178Z,5.3
2022-10-04T04:26:50.494Z,5.3
2022-10-04T04:28:50.498Z,5.3
2022-10-04T04:30:50.364Z,5.3
2022-10-04T04:32:50.417Z,5.3
2022-10-04T04:34:50.854Z,5.3
2022-10-04T04:36:50.326Z,5.3
2022-10-04T04:38:50.230Z,5.4
2022-10-04T04:40:49.993Z,5.4
2022-10-04T04:42:50.074Z,5.5
2022-10-04T04:44:50.904Z,5.5
2022-10-04T04:46:50.255Z,5.5
2022-10-04T04:48:50.216Z,5.5
2022-10-04T04:50:50.203Z,5.5
2022-10-04T04:52:50.144Z,5.6
2022-10-04T04:54:50.066Z,5.6
2022-10-04T04:56:50.344Z,5.6
2022-10-04T04:58:50.326Z,5.7
2022-10-04T05:00:50.425Z,5.7
2022-10-04T05:02:59.267Z,5.7
2022-10-04T05:04:50.788Z,5.7
2022-10-04T05:06:50.062Z,5.7
2022-10-04T05:08:50.101Z,5.8
2022-10-04T05:10:49.956Z,5.7
2022-10-04T05:12:50.819Z,5.7
2022-10-04T05:14:49.949Z,5.7
2022-10-04T05:16:50.478Z,5.7
2022-10-04T05:18:50.442Z,5.8
2022-10-04T05:20:50.187Z,5.8
2022-10-04T05:22:50.196Z,5.8
2022-10-04T05:24:50.202Z,5.8
2022-10-04T05:26:50.561Z,5.8
2022-10-04T05:28:50.633Z,5.8
2022-10-04T05:30:50.469Z,5.8
2022-10-04T05:32:50.512Z,5.8
2022-10-04T05:34:50.831Z,5.8
2022-10-04T05:36:50.119Z,5.8
2022-10-04T05:38:50.919Z,5.8
2022-10-04T05:40:50.770Z,5.8
2022-10-04T05:42:49.998Z,5.8
2022-10-04T05:44:50.847Z,5.9
2022-10-04T05:46:50.052Z,5.9
2022-10-04T05:48:49.984Z,6.0
2022-10-04T05:50:50.071Z,6.0
2022-10-04T05:52:50.113Z,6.0
2022-10-04T05:54:49.944Z,6.1
2022-10-04T05:56:50.136Z,6.1
2022-10-04T05:58:50.887Z,6.1
2022-10-04T06:00:50.406Z,6.1
2022-10-04T06:02:50.575Z,6.1
2022-10-04T06:04:49.976Z,6.2
2022-10-04T06:06:50.377Z,6.2
2022-10-04T06:08:50.265Z,6.2
2022-10-04T06:10:50.382Z,6.2
2022-10-04T06:12:50.292Z,6.3
2022-10-04T06:14:50.220Z,6.3
2022-10-04T06:16:50.634Z,6.3
2022-10-04T06:18:50.653Z,6.3
2022-10-04T06:20:50.777Z,6.3
2022-10-04T06:22:50.691Z,6.3
2022-10-04T06:24:50.819Z,6.4
2022-10-04T06:26:50.144Z,6.4
2022-10-04T06:28:50.224Z,6.4
2022-10-04T06:30:50.286Z,6.4
2022-10-04T06:32:50.283Z,6.5
2022-10-04T06:34:50.747Z,6.6
2022-10-04T06:36:49.928Z,6.6
2022-10-04T06:38:49.925Z,6.7
2022-10-04T06:40:50.778Z,6.7
2022-10-04T06:42:50.878Z,6.8
2022-10-04T06:44:50.880Z,6.8
2022-10-04T06:46:50.196Z,6.8
2022-10-04T06:48:50.298Z,6.9
2022-10-04T06:50:50.187Z,6.9
2022-10-04T06:52:50.158Z,6.9
2022-10-04T06:54:50.361Z,7.0
2022-10-04T06:56:50.656Z,7.1
2022-10-04T06:58:50.750Z,7.1
2022-10-04T07:00:51.039Z,7.1
2022-10-04T07:02:50.384Z,7.1
2022-10-04T07:05:10.098Z,7.1
2022-10-04T07:06:50.816Z,7.1
2022-10-04T07:08:50.881Z,7.2
2022-10-04T07:10:50.715Z,7.3
2022-10-04T07:12:50.688Z,7.3
2022-10-04T07:14:50.637Z,7.3
2022-10-04T07:16:49.955Z,7.5
2022-10-04T07:18:50.012Z,7.6
2022-10-04T07:20:50.038Z,7.6
2022-10-04T07:22:50.249Z,7.6
2022-10-04T07:24:50.233Z,7.7
2022-10-04T07:26:50.493Z,7.7
2022-10-04T07:28:50.446Z,7.8
2022-10-04T07:30:50.901Z,7.8
2022-10-04T07:32:49.950Z,8.0
2022-10-04T07:34:50.659Z,8.0
2022-10-04T07:36:50.009Z,8.0
2022-10-04T07:38:50.860Z,8.2
2022-10-04T07:40:49.963Z,8.3
2022-10-04T07:42:50.800Z,8.4
2022-10-04T07:44:50.898Z,8.4
2022-10-04T07:46:50.094Z,8.5
2022-10-04T07:48:50.141Z,8.5
2022-10-04T07:50:49.999Z,8.6
2022-10-04T07:52:49.971Z,8.7
2022-10-04T07:54:50.106Z,8.7
2022-10-04T07:56:50.346Z,8.9
2022-10-04T07:58:50.504Z,8.9
2022-10-04T08:00:50.474Z,8.9
2022-10-04T08:02:51.442Z,9.1
2022-10-04T08:04:50.510Z,9.1
2022-10-04T08:06:50.909Z,9.1
2022-10-04T08:08:50.861Z,9.2
2022-10-04T08:10:57.936Z,9.2
2022-10-04T08:12:49.946Z,9.2
2022-10-04T08:14:50.925Z,9.3
2022-10-04T08:16:50.055Z,9.3
2022-10-04T08:18:50.137Z,9.4
2022-10-04T08:20:49.990Z,9.4
2022-10-04T08:22:50.258Z,9.4
2022-10-04T08:24:54.115Z,9.5
2022-10-04T08:26:50.278Z,9.6
2022-10-04T08:28:50.213Z,9.7
2022-10-04T08:30:50.286Z,9.7
2022-10-04T08:32:50.402Z,9.8
2022-10-04T08:34:49.971Z,9.8
2022-10-04T08:36:50.508Z,9.8
2022-10-04T08:38:50.609Z,9.9
2022-10-04T08:40:50.676Z,10.0
2022-10-04T08:42:50.875Z,10.0
2022-10-04T08:44:50.675Z,10.1
2022-10-04T08:46:51.162Z,10.2
2022-10-04T08:48:50.146Z,10.2
2022-10-04T08:50:50.835Z,10.3
2022-10-04T08:52:50.767Z,10.3
2022-10-04T08:54:50.606Z,10.5
2022-10-04T08:56:50.743Z,10.6
2022-10-04T08:58:50.629Z,10.7
2022-10-04T09:00:50.713Z,10.7
2022-10-04T09:02:51.008Z,10.9
2022-10-04T09:04:50.632Z,10.9
2022-10-04T09:06:50.575Z,11.0
2022-10-04T09:08:50.410Z,11.0
2022-10-04T09:10:50.512Z,11.1
2022-10-04T09:12:50.335Z,11.2
2022-10-04T09:14:50.270Z,11.3
2022-10-04T09:16:50.531Z,11.4
2022-10-04T09:18:50.423Z,11.4
2022-10-04T09:20:50.401Z,11.5
2022-10-04T09:22:50.291Z,11.6
2022-10-04T09:24:50.401Z,11.7
2022-10-04T09:26:50.204Z,11.7
2022-10-04T09:28:50.198Z,11.9
2022-10-04T09:30:50.926Z,11.9
2022-10-04T09:32:50.774Z,12.0
2022-10-04T09:34:50.111Z,12.1
2022-10-04T09:36:50.225Z,12.1
2022-10-04T09:39:30.227Z,12.2
2022-10-04T09:40:50.286Z,12.3
2022-10-04T09:42:50.275Z,12.4
2022-10-04T09:44:50.347Z,12.5
2022-10-04T09:46:57.174Z,12.5
2022-10-04T09:48:50.297Z,12.6
2022-10-04T09:50:50.119Z,12.7
2022-10-04T09:52:50.011Z,12.8
2022-10-04T09:54:49.990Z,12.9
2022-10-04T09:56:50.025Z,12.9
2022-10-04T09:58:50.184Z,12.9
2022-10-04T10:00:50.297Z,13.0
2022-10-04T10:02:50.560Z,13.1
2022-10-04T10:04:50.389Z,13.2
2022-10-04T10:06:50.519Z,13.2
2022-10-04T10:08:50.535Z,13.2
2022-10-04T10:10:50.407Z,13.3
2022-10-04T10:12:50.364Z,13.4
2022-10-04T10:14:50.563Z,13.4
2022-10-04T10:16:49.950Z,13.4
2022-10-04T10:18:49.943Z,13.5
2022-10-04T10:20:50.835Z,13.5
2022-10-04T10:22:49.925Z,13.6
2022-10-04T10:24:50.895Z,13.7
2022-10-04T10:26:50.048Z,13.7
2022-10-04T10:28:50.311Z,13.7
2022-10-04T10:30:50.547Z,13.8
2022-10-04T10:32:50.446Z,13.9
2022-10-04T10:34:49.995Z,13.9
2022-10-04T10:36:50.294Z,14.0
2022-10-04T10:38:50.235Z,14.0
2022-10-04T10:40:50.177Z,14.1
2022-10-04T10:42:50.037Z,14.2
2022-10-04T10:44:50.155Z,14.2
2022-10-04T10:46:50.586Z,14.3
2022-10-04T10:48:50.919Z,14.3
2022-10-04T10:50:50.764Z,14.4
2022-10-04T10:52:50.693Z,14.5
2022-10-04T10:54:50.583Z,14.5
2022-10-04T10:56:49.943Z,14.6
2022-10-04T10:58:49.888Z,14.6
2022-10-04T11:00:50.924Z,14.7
2022-10-04T11:02:51.741Z,14.7
2022-10-04T11:04:50.296Z,14.7
2022-10-04T11:06:50.645Z,14.8
2022-10-04T11:08:50.894Z,14.9
2022-10-04T11:10:52.481Z,14.9
2022-10-04T11:12:50.368Z,15.0
2022-10-04T11:14:50.575Z,15.0
2022-10-04T11:16:50.229Z,15.0
2022-10-04T11:18:50.238Z,15.1
2022-10-04T11:20:50.268Z,15.2
2022-10-04T11:22:50.199Z,15.2
2022-10-04T11:24:50.473Z,15.2
2022-10-04T11:26:50.581Z,15.3
2022-10-04T11:28:50.641Z,15.4
2022-10-04T11:30:50.814Z,15.4
2022-10-04T11:32:50.939Z,15.4
2022-10-04T11:34:50.406Z,15.5
2022-10-04T11:36:50.211Z,15.6
2022-10-04T11:38:50.471Z,15.6
2022-10-04T11:40:50.275Z,15.6
2022-10-04T11:42:50.278Z,15.7
2022-10-04T11:44:50.267Z,15.8
2022-10-04T11:46:50.975Z,15.8
2022-10-04T11:48:50.118Z,15.9
2022-10-04T11:50:50.215Z,15.9
2022-10-04T11:52:50.258Z,16.0
2022-10-04T11:54:50.290Z,16.0
2022-10-04T11:56:50.663Z,16.0
2022-10-04T11:58:50.727Z,16.0
2022-10-04T12:00:50.735Z,16.1
2022-10-04T12:02:49.913Z,16.2
2022-10-04T12:04:50.822Z,16.2
2022-10-04T12:06:50.397Z,16.2
2022-10-04T12:08:50.642Z,16.2
2022-10-04T12:10:50.560Z,16.2
2022-10-04T12:12:50.793Z,16.3
2022-10-04T12:14:50.756Z,16.3
2022-10-04T12:16:51.022Z,16.3
2022-10-04T12:18:50.265Z,16.4
2022-10-04T12:20:50.116Z,16.4
2022-10-04T12:22:50.187Z,16.4
2022-10-04T12:24:50.251Z,16.4
2022-10-04T12:26:50.720Z,16.5
2022-10-04T12:28:50.830Z,16.6
2022-10-04T12:30:50.800Z,16.6
2022-10-04T12:32:58.577Z,16.6
2022-10-04T12:34:50.178Z,16.7
2022-10-04T12:36:50.748Z,16.7
2022-10-04T12:38:50.699Z,16.8
2022-10-04T12:40:50.787Z,16.7
2022-10-04T12:42:50.859Z,16.8
2022-10-04T12:44:50.736Z,16.9
2022-10-04T12:46:50.098Z,16.9
2022-10-04T12:48:50.173Z,17.0
2022-10-04T12:50:50.238Z,17.0
2022-10-04T12:52:50.138Z,17.0
2022-10-04T12:54:49.968Z,17.1
2022-10-04T12:56:50.328Z,17.1
2022-10-04T12:58:50.131Z,17.2
2022-10-04T13:00:50.538Z,17.2
2022-10-04T13:02:50.520Z,17.2
2022-10-04T13:04:50.078Z,17.3
2022-10-04T13:06:51.186Z,17.3
2022-10-04T13:08:50.167Z,17.3
2022-10-04T13:10:50.427Z,17.3
2022-10-04T13:12:50.296Z,17.2
2022-10-04T13:14:50.349Z,17.2
2022-10-04T13:17:26.930Z,17.2
2022-10-04T13:18:50.850Z,17.2
2022-10-04T13:20:50.910Z,17.2
2022-10-04T13:22:58.636Z,17.2
2022-10-04T13:24:50.726Z,17.2
2022-10-04T13:26:50.041Z,17.2
2022-10-04T13:28:50.021Z,17.3
2022-10-04T13:30:50.014Z,17.3
2022-10-04T13:32:49.966Z,17.3
2022-10-04T13:34:49.936Z,17.3
2022-10-04T13:36:50.002Z,17.3
2022-10-04T13:38:50.147Z,17.3
2022-10-04T13:40:50.276Z,17.3
2022-10-04T13:42:50.144Z,17.3
2022-10-04T13:44:50.340Z,17.3
2022-10-04T13:46:50.644Z,17.3
2022-10-04T13:48:50.650Z,17.3
2022-10-04T13:50:50.669Z,17.3
2022-10-04T13:52:50.708Z,17.3
2022-10-04T13:54:50.728Z,17.4
2022-10-04T13:56:50.102Z,17.3
2022-10-04T13:58:50.221Z,17.3
2022-10-04T14:00:50.451Z,17.3
2022-10-04T14:02:50.514Z,17.3
2022-10-04T14:04:50.029Z,17.3
2022-10-04T14:06:50.262Z,17.3
2022-10-04T14:08:50.419Z,17.2
2022-10-04T14:10:50.534Z,17.2
2022-10-04T14:12:50.507Z,17.2
2022-10-04T14:14:50.651Z,17.2
2022-10-04T14:16:50.234Z,17.2
2022-10-04T14:18:50.442Z,17.2
2022-10-04T14:20:50.379Z,17.2
2022-10-04T14:22:50.463Z,17.2
2022-10-04T14:24:50.424Z,17.2
2022-10-04T14:26:50.736Z,17.2
2022-10-04T14:28:50.833Z,17.2
2022-10-04T14:30:50.711Z,17.1
2022-10-04T14:32:50.900Z,17.2
2022-10-04T14:34:50.676Z,17.2
2022-10-04T14:36:50.064Z,17.2
2022-10-04T14:38:50.268Z,17.2
2022-10-04T14:40:50.479Z,17.2
2022-10-04T14:42:50.790Z,17.3
2022-10-04T14:44:50.084Z,17.3
2022-10-04T14:46:50.322Z,17.3
2022-10-04T14:48:50.482Z,17.3
2022-10-04T14:50:50.477Z,17.3
2022-10-04T14:52:50.605Z,17.3
2022-10-04T14:54:50.522Z,17.3
2022-10-04T14:56:50.711Z,17.3
2022-10-04T14:58:50.771Z,17.3
2022-10-04T15:00:51.249Z,17.3
2022-10-04T15:02:50.609Z,17.4
2022-10-04T15:04:50.622Z,17.3
2022-10-04T15:06:50.216Z,17.3
2022-10-04T15:08:50.650Z,17.3
2022-10-04T15:10:50.872Z,17.3
2022-10-04T15:13:12.732Z,17.2
2022-10-04T15:14:50.887Z,17.2
2022-10-04T15:16:50.369Z,17.2
2022-10-04T15:18:50.248Z,17.2
2022-10-04T15:20:50.460Z,17.2
2022-10-04T15:22:50.652Z,17.1
2022-10-04T15:24:50.595Z,17.1
2022-10-04T15:26:49.994Z,17.1
2022-10-04T15:28:50.128Z,17.1
2022-10-04T15:30:50.495Z,17.1
2022-10-04T15:32:50.737Z,17.0
2022-10-04T15:34:50.179Z,17.0
2022-10-04T15:36:50.518Z,17.0
2022-10-04T15:38:50.493Z,17.0
2022-10-04T15:40:50.421Z,16.9
2022-10-04T15:42:50.429Z,16.9
2022-10-04T15:44:50.456Z,16.8
2022-10-04T15:46:50.926Z,16.8
2022-10-04T15:48:50.883Z,16.7
2022-10-04T15:50:50.125Z,16.6
2022-10-04T15:52:50.167Z,16.6
2022-10-04T15:54:50.021Z,16.6
2022-10-04T15:56:50.479Z,16.6
2022-10-04T15:58:54.578Z,16.5
2022-10-04T16:00:50.730Z,16.4
2022-10-04T16:02:51.035Z,16.3
2022-10-04T16:04:50.809Z,16.3
2022-10-04T16:06:50.043Z,16.3
2022-10-04T16:08:50.035Z,16.2
2022-10-04T16:10:50.142Z,16.1
2022-10-04T16:12:50.167Z,16.0
2022-10-04T16:14:50.095Z,16.0
2022-10-04T16:16:50.565Z,16.0
2022-10-04T16:18:50.473Z,15.9
2022-10-04T16:20:50.453Z,15.8
2022-10-04T16:22:50.300Z,15.8
2022-10-04T16:24:50.277Z,15.7
2022-10-04T16:26:50.791Z,15.7
2022-10-04T16:28:50.815Z,15.6
2022-10-04T16:30:50.328Z,15.5
2022-10-04T16:32:50.370Z,15.4
2022-10-04T16:34:50.778Z,15.4
2022-10-04T16:36:50.288Z,15.4
2022-10-04T16:38:50.283Z,15.3
2022-10-04T16:40:50.285Z,15.2
2022-10-04T16:42:50.281Z,15.0
2022-10-04T16:44:50.223Z,15.0
2022-10-04T16:46:50.465Z,14.9
2022-10-04T16:48:50.620Z,14.8
2022-10-04T16:50:50.659Z,14.7
2022-10-04T16:52:50.609Z,14.7
2022-10-04T16:54:50.604Z,14.6
2022-10-04T16:56:50.853Z,14.5
2022-10-04T16:58:50.855Z,14.3
2022-10-04T17:00:50.822Z,14.2
2022-10-04T17:02:49.936Z,14.2
2022-10-04T17:04:50.599Z,14.1
2022-10-04T17:06:50.183Z,14.0
2022-10-04T17:08:50.470Z,13.9
2022-10-04T17:10:50.401Z,13.8
2022-10-04T17:12:50.416Z,13.8
2022-10-04T17:14:50.478Z,13.7
2022-10-04T17:16:50.797Z,13.6
2022-10-04T17:18:50.793Z,13.6
2022-10-04T17:20:50.713Z,13.5
2022-10-04T17:22:50.700Z,13.4
2022-10-04T17:24:50.767Z,13.3
2022-10-04T17:26:50.103Z,13.2
2022-10-04T17:28:50.071Z,13.2
2022-10-04T17:30:50.314Z,13.1
2022-10-04T17:32:50.235Z,13.0
2022-10-04T17:34:50.572Z,12.9
2022-10-04T17:36:49.978Z,12.8
2022-10-04T17:38:49.954Z,12.8
2022-10-04T17:40:50.833Z,12.6
2022-10-04T17:42:50.854Z,12.6
2022-10-04T17:44:50.677Z,12.5
2022-10-04T17:46:51.246Z,12.4
2022-10-04T17:48:50.251Z,12.4
2022-10-04T17:50:50.087Z,12.3
2022-10-04T17:52:53.548Z,12.3
2022-10-04T17:54:50.436Z,12.2
2022-10-04T17:56:50.841Z,12.1
2022-10-04T17:58:49.974Z,12.1
2022-10-04T18:00:50.753Z,12.0
2022-10-04T18:02:51.134Z,11.9
2022-10-04T18:04:50.869Z,11.8
2022-10-04T18:06:50.201Z,11.8
2022-10-04T18:08:50.001Z,11.8
2022-10-04T18:10:50.843Z,11.8
2022-10-04T18:12:50.761Z,11.7
2022-10-04T18:14:50.621Z,11.7
2022-10-04T18:16:50.936Z,11.6
2022-10-04T18:18:50.861Z,11.6
2022-10-04T18:20:49.945Z,11.6
2022-10-04T18:22:50.198Z,11.5
2022-10-04T18:24:50.206Z,11.4
2022-10-04T18:26:57.056Z,11.4
2022-10-04T18:28:50.044Z,11.4
2022-10-04T18:30:50.941Z,11.4
2022-10-04T18:32:50.076Z,11.4
2022-10-04T18:34:50.674Z,11.3
2022-10-04T18:36:50.097Z,11.3
2022-10-04T18:38:50.089Z,11.2
2022-10-04T18:40:50.225Z,11.2
2022-10-04T18:42:50.393Z,11.2
2022-10-04T18:44:50.375Z,11.2
2022-10-04T18:46:51.754Z,11.2
2022-10-04T18:48:50.102Z,11.1
2022-10-04T18:50:50.208Z,11.1
2022-10-04T18:52:50.494Z,11.1
2022-10-04T18:54:50.558Z,11.1
2022-10-04T18:56:52.054Z,11.0
2022-10-04T18:58:50.987Z,11.0
2022-10-04T19:00:50.705Z,11.0
2022-10-04T19:02:50.217Z,11.0
2022-10-04T19:04:50.796Z,10.9
2022-10-04T19:06:50.861Z,10.9
2022-10-04T19:08:50.520Z,10.9
2022-10-04T19:10:51.433Z,10.9
2022-10-04T19:12:51.046Z,10.8
2022-10-04T19:14:50.851Z,10.8
2022-10-04T19:16:51.593Z,10.8
2022-10-04T19:18:51.313Z,10.7
2022-10-04T19:20:51.135Z,10.7
2022-10-04T19:22:50.848Z,10.7
2022-10-04T19:24:50.963Z,10.6
2022-10-04T19:26:51.381Z,10.6
2022-10-04T19:28:51.176Z,10.6
2022-10-04T19:30:50.967Z,10.5
2022-10-04T19:32:50.891Z,10.5
2022-10-04T19:34:51.193Z,10.5
2022-10-04T19:36:51.183Z,10.4
2022-10-04T19:38:51.016Z,10.4
2022-10-04T19:40:50.704Z,10.3
2022-10-04T19:42:51.134Z,10.3
2022-10-04T19:44:50.569Z,10.3
2022-10-04T19:46:51.522Z,10.2
2022-10-04T19:48:52.215Z,10.2
2022-10-04T19:50:50.857Z,10.1
2022-10-04T19:52:50.293Z,10.1
2022-10-04T19:54:50.767Z,10.0
2022-10-04T19:56:50.406Z,9.9
2022-10-04T19:58:50.936Z,9.8
2022-10-04T20:00:50.668Z,9.8
2022-10-04T20:02:50.555Z,9.8
2022-10-04T20:04:50.488Z,9.7
2022-10-04T20:06:51.204Z,9.6
2022-10-04T20:08:50.740Z,9.6
2022-10-04T20:10:51.070Z,9.5
2022-10-04T20:12:50.710Z,9.5
2022-10-04T20:14:50.991Z,9.4
2022-10-04T20:16:52.187Z,9.3
2022-10-04T20:18:50.611Z,9.3
2022-10-04T20:20:50.930Z,9.3
2022-10-04T20:22:50.401Z,9.2
2022-10-04T20:24:50.399Z,9.1
2022-10-04T20:26:56.683Z,9.1
2022-10-04T20:28:50.515Z,9.1
2022-10-04T20:30:50.564Z,9.0
2022-10-04T20:32:50.750Z,9.0
2022-10-04T20:34:50.702Z,9.0
2022-10-04T20:36:50.129Z,8.9
2022-10-04T20:38:50.948Z,8.9
2022-10-04T20:40:50.902Z,8.9
2022-10-04T20:42:50.907Z,8.9
2022-10-04T20:44:50.793Z,8.8
2022-10-04T20:46:50.143Z,8.8
2022-10-04T20:48:50.138Z,8.8
2022-10-04T20:50:50.244Z,8.7
2022-10-04T20:52:50.729Z,8.7
2022-10-04T20:54:50.647Z,8.7
2022-10-04T20:56:50.135Z,8.6
2022-10-04T20:58:50.023Z,8.6
2022-10-04T21:00:50.536Z,8.6
2022-10-04T21:02:50.494Z,8.5
2022-10-04T21:04:50.897Z,8.5
2022-10-04T21:06:50.302Z,8.5
2022-10-04T21:08:50.168Z,8.4
2022-10-04T21:10:50.218Z,8.4
2022-10-04T21:12:50.225Z,8.4
2022-10-04T21:14:50.113Z,8.4
2022-10-04T21:16:55.569Z,8.4
2022-10-04T21:18:50.594Z,8.4
2022-10-04T21:20:50.545Z,8.4
2022-10-04T21:22:53.815Z,8.3
2022-10-04T21:24:50.739Z,8.2
2022-10-04T21:26:50.172Z,8.2
2022-10-04T21:28:50.155Z,8.2
2022-10-04T21:30:50.213Z,8.2
2022-10-04T21:32:50.189Z,8.1
2022-10-04T21:34:55.223Z,8.1
2022-10-04T21:36:50.629Z,8.1
2022-10-04T21:38:50.442Z,8.1
2022-10-04T21:40:50.371Z,8.1
2022-10-04T21:42:50.282Z,8.1
2022-10-04T21:44:50.671Z,8.1
2022-10-04T21:46:50.868Z,8.1
2022-10-04T21:48:50.799Z,8.1
2022-10-04T21:50:50.846Z,8.1
2022-10-04T21:52:50.816Z,8.0
2022-10-04T21:54:50.889Z,8.0
2022-10-04T21:56:50.188Z,8.0
2022-10-04T21:58:50.295Z,8.0
2022-10-04T22:00:50.603Z,8.0
2022-10-04T22:02:50.533Z,8.0
2022-10-04T22:04:50.897Z,8.0
2022-10-04T22:06:50.349Z,8.0
2022-10-04T22:08:50.265Z,7.9
2022-10-04T22:10:58.120Z,7.9
2022-10-04T22:12:50.014Z,7.9
2022-10-04T22:14:50.886Z,7.9
2022-10-04T22:16:52.044Z,7.9
2022-10-04T22:18:50.110Z,7.8
2022-10-04T22:20:50.129Z,7.8
2022-10-04T22:22:50.195Z,7.8
2022-10-04T22:24:50.310Z,7.8
2022-10-04T22:26:51.041Z,7.8
2022-10-04T22:28:50.872Z,7.8
2022-10-04T22:30:50.866Z,7.8
2022-10-04T22:32:50.885Z,7.7
2022-10-04T22:34:50.300Z,7.7
2022-10-04T22:36:51.020Z,7.7
2022-10-04T22:38:50.913Z,7.7
2022-10-04T22:40:50.713Z,7.7
2022-10-04T22:42:50.798Z,7.7
2022-10-04T22:44:50.618Z,7.7
2022-10-04T22:46:49.967Z,7.7
2022-10-04T22:48:50.161Z,7.7
2022-10-04T22:50:50.185Z,7.7
2022-10-04T22:52:50.197Z,7.7
2022-10-04T22:54:50.223Z,7.7
2022-10-04T22:56:50.497Z,7.7
2022-10-04T22:58:50.557Z,7.7
2022-10-04T23:00:50.596Z,7.6
2022-10-04T23:02:51.170Z,7.6
2022-10-04T23:04:51.136Z,7.6
2022-10-04T23:06:50.518Z,7.7
2022-10-04T23:08:50.394Z,7.6
2022-10-04T23:10:50.522Z,7.6
2022-10-04T23:12:50.283Z,7.6
2022-10-04T23:14:50.339Z,7.6
2022-10-04T23:16:50.707Z,7.6
2022-10-04T23:18:50.786Z,7.6
2022-10-04T23:20:50.808Z,7.6
2022-10-04T23:22:50.681Z,7.6
2022-10-04T23:24:50.561Z,7.6
2022-10-04T23:26:51.016Z,7.5
2022-10-04T23:28:49.969Z,7.5
2022-10-04T23:30:50.046Z,7.5
2022-10-04T23:32:50.088Z,7.5
2022-10-04T23:34:57.381Z,7.4
2022-10-04T23:36:50.894Z,7.3
2022-10-04T23:38:49.991Z,7.3
2022-10-04T23:40:50.261Z,7.3
2022-10-04T23:42:50.106Z,7.3
2022-10-04T23:44:50.218Z,7.2
2022-10-04T23:46:50.557Z,7.2
2022-10-04T23:48:50.649Z,7.1
2022-10-04T23:50:50.665Z,7.1
2022-10-04T23:52:50.736Z,7.1
2022-10-04T23:54:50.947Z,7.1
2022-10-04T23:56:50.455Z,7.1
2022-10-04T23:58:50.224Z,7.1
